Terminal Aerodrome Forecast
Issued by NWS Newport/Morehead City, NC

Home | Current Version | Previous Version | Graphics & Text | Print | Product List | Glossary On
Versions: 1 2 3 4 5 6 7 8 9 10 11 12 13 14 15 16 17 18 19
000
FTUS42 KMHX 282102 AAA
TAFEWN
TAF AMD
KEWN 282102Z 2821/2918 19007KT P6SM FEW040
     FM290000 VRB04KT P6SM SCT250
     FM291400 11005KT P6SM SCT030=

USA.gov is the U.S. government's official web portal to all federal, state and local government web resources and services.